• Join FlightAware (Why Join?)
  • Login
  • US Flag 
09:09AM EDT


 

Airport Tracker/Info


-or-


 

Live Flight TrackerFlight Track Log ✈ SWA395 ✈ 22-Apr-2013 ✈ KTUL - KLAS

Flight Track Log - Related Links

Times and Time Zones

All times are in EDT time to prevent confusion due to time zone crossing. See the SWA395 flight status page for this flight to view local times or setup timezone preferences in your user account.

Time Position Orientation Groundspeed Altitude Reporting Facility
EDT Latitude Longitude Course Direction KTS MPH feet Rate Location/Type
04:07PM 36.1964 -95.8528 134° Southeast 167 192 2,200  Level Kansas City Center
04:08PM 36.1706 -95.8200 134° Southeast 195 224 3,700 2,220 Climbing Kansas City Center
04:08PM 36.1456 -95.8089 160° South 206 237 5,300 3,300 Climbing Kansas City Center
04:09PM 36.1150 -95.8894 245° Southwest 241 277 9,300 3,000 Climbing Kansas City Center
04:10PM 36.1111 -95.9856 267° West 271 312 11,500 2,340 Climbing Kansas City Center
04:11PM 36.0956 -96.0964 260° West 320 368 14,200 2,640 Climbing Kansas City Center
04:13PM 36.0778 -96.2158 260° West 344 396 17,100 2,820 Climbing Kansas City Center
04:14PM 36.0608 -96.3392 260° West 359 413 20,100 2,640 Climbing Kansas City Center
04:15PM 36.0417 -96.4653 259° West 363 418 22,500 2,040 Climbing Kansas City Center
04:16PM 36.0225 -96.5942 260° West 377 434 24,400 1,860 Climbing Kansas City Center
04:17PM 36.0036 -96.7256 260° West 387 445 26,500 2,160 Climbing Kansas City Center
04:18PM 35.9803 -96.8822 260° West 390 449 28,900 1,980 Climbing Kansas City Center
04:20PM 35.9414 -97.1375 259° West 382 440 32,600 1,680 Climbing Kansas City Center
04:21PM 35.9225 -97.2628 259° West 378 435 34,200 1,380 Climbing Kansas City Center
04:22PM 35.9036 -97.3867 259° West 374 430 35,500 1,140 Climbing Kansas City Center
04:23PM 35.8803 -97.5350 259° West 371 427 36,600 1,200 Climbing Kansas City Center
04:24PM 35.8647 -97.6389 260° West 378 435 37,700 720 Climbing Fort Worth Center
04:25PM 35.8456 -97.7619 259° West 368 423 38,000 120 Climbing Fort Worth Center
04:26PM 35.8244 -97.8794 258° West 368 423 38,000  Level Fort Worth Center
04:27PM 35.8053 -97.9997 259° West 368 423 38,000  Level Fort Worth Center
04:28PM 35.7900 -98.1222 261° West 368 423 38,000  Level Fort Worth Center
04:29PM 35.7747 -98.2450 261° West 368 423 38,000  Level Fort Worth Center
04:30PM 35.7569 -98.3650 260° West 368 423 38,000  Level Fort Worth Center
04:31PM 35.7414 -98.4850 261° West 368 423 38,000  Level Fort Worth Center
04:32PM 35.7258 -98.6100 261° West 368 423 38,000  Level Fort Worth Center
04:33PM 35.7119 -98.7300 262° West 368 423 38,000  Level Fort Worth Center
04:34PM 35.6942 -98.8472 259° West 368 423 38,000  Level Fort Worth Center
04:35PM 35.6781 -98.9697 261° West 368 423 38,000  Level Fort Worth Center
04:37PM 35.6389 -99.2700 261° West 365 420 38,000  Level Albuquerque Center
04:38PM 35.6378 -99.3956 269° West 365 420 38,000  Level Albuquerque Center
04:39PM 35.6494 -99.5206 277° West 364 419 38,000  Level Albuquerque Center
04:40PM 35.6614 -99.6458 277° West 366 421 38,000  Level Albuquerque Center
04:41PM 35.6725 -99.7708 276° West 367 422 38,000  Level Albuquerque Center
04:42PM 35.6836 -99.8950 276° West 364 419 38,000  Level Albuquerque Center
04:43PM 35.6953 -100.0197 277° West 366 421 38,000  Level Albuquerque Center
04:44PM 35.7056 -100.1431 276° West 364 419 38,000  Level Albuquerque Center
04:45PM 35.7158 -100.2656 276° West 361 415 38,000  Level Albuquerque Center
04:46PM 35.7286 -100.4133 276° West 362 417 38,000  Level Albuquerque Center
04:47PM 35.7394 -100.5375 276° West 363 418 38,000  Level Albuquerque Center
04:48PM 35.7489 -100.6617 275° West 365 420 38,000  Level Albuquerque Center
04:49PM 35.7594 -100.7853 276° West 363 418 38,000  Level Albuquerque Center
04:50PM 35.7697 -100.9069 276° West 358 412 38,000  Level Albuquerque Center
04:51PM 35.7806 -101.0383 276° West 353 406 38,000  Level Albuquerque Center
04:53PM 35.7894 -101.1592 275° West 355 409 38,000  Level Albuquerque Center
04:54PM 35.7994 -101.2831 276° West 362 417 38,000  Level Albuquerque Center
04:55PM 35.8072 -101.4053 275° West 362 417 38,000  Level Albuquerque Center
04:56PM 35.8033 -101.5283 268° West 363 418 38,000  Level Albuquerque Center
04:57PM 35.7994 -101.6775 268° West 365 420 38,000  Level Albuquerque Center
04:58PM 35.7958 -101.8008 268° West 364 419 38,000  Level Albuquerque Center
04:59PM 35.7928 -101.9244 268° West 363 418 38,000  Level Albuquerque Center
05:00PM 35.7883 -102.0528 268° West 373 429 38,000  Level Albuquerque Center
05:01PM 35.7844 -102.1753 268° West 365 420 38,000  Level Albuquerque Center
05:02PM 35.7803 -102.3264 268° West 369 425 38,000  Level Albuquerque Center
05:03PM 35.7756 -102.4519 267° West 370 426 38,000  Level Albuquerque Center
05:04PM 35.7717 -102.5769 268° West 368 423 38,000  Level Albuquerque Center
05:05PM 35.7664 -102.7011 267° West 366 421 38,000  Level Albuquerque Center
05:06PM 35.7631 -102.8267 268° West 367 422 38,000  Level Albuquerque Center
05:07PM 35.7575 -102.9567 267° West 365 420 38,000  Level Albuquerque Center
05:08PM 35.7533 -103.0842 268° West 369 425 38,000  Level Albuquerque Center
05:09PM 35.7483 -103.2100 267° West 368 423 38,000  Level Albuquerque Center
05:10PM 35.7431 -103.3572 268° West 367 422 38,000  Level Albuquerque Center
05:11PM 35.7378 -103.4819 267° West 364 419 38,000  Level Albuquerque Center
05:12PM 35.7328 -103.6056 267° West 361 415 38,000  Level Albuquerque Center
05:13PM 35.7264 -103.7314 266° West 365 420 38,000  Level Albuquerque Center
05:14PM 35.7214 -103.8603 267° West 373 429 38,000  Level Albuquerque Center
05:15PM 35.7153 -103.9881 267° West 374 430 38,000  Level Albuquerque Center
05:16PM 35.7094 -104.1161 267° West 374 430 38,000  Level Albuquerque Center
05:17PM 35.7028 -104.2442 266° West 375 432 38,000  Level Albuquerque Center
05:18PM 35.6956 -104.3950 267° West 377 434 38,000  Level Albuquerque Center
05:19PM 35.6894 -104.5256 267° West 380 437 38,000  Level Albuquerque Center
05:20PM 35.6822 -104.6564 266° West 382 440 38,000  Level Albuquerque Center
05:21PM 35.6756 -104.7858 266° West 379 436 38,000  Level Albuquerque Center
05:22PM 35.6683 -104.9150 266° West 377 434 38,000  Level Albuquerque Center
05:23PM 35.6617 -105.0436 266° West 375 432 38,000  Level Albuquerque Center
05:24PM 35.6547 -105.1739 266° West 379 436 38,000  Level Albuquerque Center
05:25PM 35.6503 -105.3036 268° West 378 435 38,000  Level Albuquerque Center
05:26PM 35.6447 -105.4575 268° West 383 441 38,000  Level Albuquerque Center
05:27PM 35.6417 -105.5844 268° West 392 451 38,000  Level Albuquerque Center
05:29PM 35.6347 -105.7250 267° West 386 444 38,000  Level Albuquerque Center
05:30PM 35.6303 -105.8547 268° West 379 436 38,000  Level Albuquerque Center
05:31PM 35.6258 -105.9714 267° West 377 434 38,000  Level Albuquerque Center
05:32PM 35.6217 -106.0981 268° West 374 430 38,000  Level Albuquerque Center
05:33PM 35.6161 -106.2531 268° West 379 436 38,000  Level Albuquerque Center
05:34PM 35.6106 -106.3814 267° West 379 436 38,000  Level Albuquerque Center
05:35PM 35.6056 -106.5094 267° West 378 435 38,000  Level Albuquerque Center
05:36PM 35.5989 -106.6394 266° West 382 440 38,000  Level Albuquerque Center
05:37PM 35.5933 -106.7686 267° West 381 438 38,000  Level Albuquerque Center
05:38PM 35.5872 -106.8969 267° West 380 437 38,000  Level Albuquerque Center
05:39PM 35.5808 -107.0514 267° West 380 437 38,000  Level Albuquerque Center
05:40PM 35.5733 -107.1817 266° West 376 433 38,000  Level Albuquerque Center
05:41PM 35.5669 -107.3033 266° West 374 430 38,000  Level Albuquerque Center
05:42PM 35.5586 -107.4486 266° West 378 435 38,000  Level Albuquerque Center
05:43PM 35.5522 -107.5717 266° West 379 436 38,000  Level Albuquerque Center
05:44PM 35.5464 -107.6944 267° West 376 433 38,000  Level Albuquerque Center
05:45PM 35.5386 -107.8378 266° West 377 434 38,000  Level Albuquerque Center
05:46PM 35.5314 -107.9631 266° West 380 437 38,000  Level Albuquerque Center
05:47PM 35.5231 -108.1097 266° West 385 443 38,000  Level Albuquerque Center
05:48PM 35.5158 -108.2364 266° West 387 445 38,000  Level Albuquerque Center
05:49PM 35.5067 -108.3833 266° West 387 445 38,000  Level Albuquerque Center
05:50PM 35.4997 -108.5094 266° West 385 443 38,000  Level Albuquerque Center
05:51PM 35.4917 -108.6361 266° West 386 444 38,000  Level Albuquerque Center
05:52PM 35.4822 -108.7839 266° West 387 445 38,000  Level Albuquerque Center
05:53PM 35.4794 -108.9100 268° West 387 445 38,000  Level Albuquerque Center
05:54PM 35.4861 -109.0600 273° West 390 449 38,000  Level Albuquerque Center
05:55PM 35.4922 -109.1869 273° West 389 448 38,000  Level Albuquerque Center
05:56PM 35.4986 -109.3139 274° West 388 447 38,000  Level Albuquerque Center
05:57PM 35.5069 -109.4617 274° West 389 448 38,000  Level Albuquerque Center
05:58PM 35.5114 -109.5892 272° West 391 450 38,000  Level Albuquerque Center
05:59PM 35.5175 -109.7364 273° West 387 445 38,000  Level Albuquerque Center
06:00PM 35.5231 -109.8628 273° West 388 447 38,000  Level Albuquerque Center
06:01PM 35.5275 -110.0108 272° West 388 447 38,000  Level Albuquerque Center
06:02PM 35.5328 -110.1347 273° West 384 442 38,000  Level Albuquerque Center
06:04PM 35.5375 -110.2622 273° West 387 445 38,000  Level Albuquerque Center
06:05PM 35.5414 -110.4092 272° West 387 445 38,000  Level Albuquerque Center
06:06PM 35.5453 -110.5378 272° West 391 450 38,000  Level Albuquerque Center
06:07PM 35.5519 -110.6853 273° West 389 448 38,000  Level Albuquerque Center
06:08PM 35.5556 -110.8108 272° West 387 445 38,000 -540 Level Albuquerque Center
06:09PM 35.5617 -110.9589 273° West 388 447 36,900 -1,020 Descending Albuquerque Center
06:10PM 35.5661 -111.0858 273° West 389 448 36,000 -900 Descending Albuquerque Center
06:11PM 35.5697 -111.2161 272° West 394 453 35,100 -1,020 Descending Albuquerque Center
06:12PM 35.5756 -111.3708 273° West 404 465 34,000 -660 Descending Albuquerque Center
06:13PM 35.5806 -111.5142 272° West 416 479 33,800 -1,620 Descending Albuquerque Center
06:14PM 35.5847 -111.6525 272° West 411 473 30,700 -1,860 Descending Albuquerque Center
06:15PM 35.5881 -111.7872 272° West 402 463 30,000 -360 Descending Albuquerque Center
06:16PM 35.5917 -111.9206 272° West 397 457 30,000  Level Albuquerque Center
06:17PM 35.5961 -112.0575 272° West 401 461 30,000  Level Albuquerque Center
06:18PM 35.5989 -112.2178 271° West 397 457 30,000  Level Albuquerque Center
06:19PM 35.6028 -112.3525 272° West 397 457 30,000  Level Albuquerque Center
06:19PM 35.6036 -112.3814 272° West 398 458 30,000  Level Los Angeles Center
06:20PM 35.6072 -112.5433 272° West 399 459 30,000  Level Los Angeles Center
06:22PM 35.6097 -112.6969 271° West 395 455 30,000  Level Los Angeles Center
06:23PM 35.6139 -112.8328 272° West 397 457 30,000  Level Los Angeles Center
06:24PM 35.6156 -112.9847 271° West 399 459 30,000  Level Los Angeles Center
06:25PM 35.6189 -113.1186 272° West 393 452 30,000  Level Los Angeles Center
06:26PM 35.6203 -113.2556 271° West 398 458 30,000 -960 Level Los Angeles Center
06:27PM 35.6225 -113.4008 271° West 402 463 28,100 -1,980 Descending Los Angeles Center
06:28PM 35.6244 -113.5286 271° West 381 438 26,000 -2,100 Descending Los Angeles Center
06:29PM 35.6400 -113.6500 279° West 365 420 23,800 -2,280 Descending Los Angeles Center
06:30PM 35.6597 -113.7897 280° West 350 403 21,400 -2,160 Descending Los Angeles Center
06:31PM 35.6761 -113.9019 280° West 337 388 19,400 -1,920 Descending Los Angeles Center
06:32PM 35.6906 -114.0111 279° West 327 376 17,500 -1,860 Descending Los Angeles Center
06:33PM 35.7069 -114.1211 280° West 328 377 15,600 -1,860 Descending Los Angeles Center
06:34PM 35.7208 -114.2317 279° West 329 379 13,700 -2,220 Descending Los Angeles Center
06:34PM 35.7322 -114.2894 284° West 337 388 12,600 -1,680 Descending Los Angeles Center
06:35PM 35.7403 -114.3653 277° West 331 381 12,000 -660 Descending Los Angeles Center
06:35PM 35.7642 -114.3928 317° Northwest 311 358 11,900 -600 Descending Los Angeles Center
06:36PM 35.8089 -114.4139 339° North 301 346 11,400 -780 Descending Los Angeles Center
06:36PM 35.8319 -114.4256 338° Northwest 287 330 11,200 -420 Descending Los Angeles Center
06:37PM 35.8781 -114.4458 340° North 276 318 11,000 -180 Descending Los Angeles Center
06:37PM 35.9092 -114.4606 339° North 257 296 11,000 -240 Level Los Angeles Center
06:38PM 35.9442 -114.4725 345° North 260 299 10,800 -600 Descending Los Angeles Center
06:38PM 35.9797 -114.4658 North 263 303 10,400 -840 Descending Los Angeles Center
06:39PM 36.0292 -114.4733 353° North 264 304 9,800 -840 Descending Los Angeles Center
06:40PM 36.0428 -114.5547 282° West 247 284 8,800 -900 Descending Los Angeles Center
06:41PM 36.0628 -114.6531 284° West 245 282 8,000 -420 Descending Los Angeles Center
06:42PM 36.0747 -114.7375 280° West 237 273 8,000 -420 Level Los Angeles Center
06:43PM 36.0756 -114.8083 271° West 230 265 7,200 -900 Descending Los Angeles Center
06:44PM 36.0750 -114.8758 269° West 202 232 6,300 -780 Descending Los Angeles Center
06:45PM 36.0736 -114.8764 198° South 214 246 6,300 -1,380 Level Los Angeles Center
06:45PM 36.0744 -114.9531 271° West 205 236 4,800 -1,560 Descending Los Angeles Center
06:46PM 36.0742 -114.9606 267° West 206 237 4,700 -1,140 Descending Los Angeles Center
06:46PM 36.0725 -115.0231 268° West 199 229 3,700 -1,200 Descending Los Angeles Center
06:47PM 36.0744 -115.0311 287° West 205 236 3,500 -1,020 Descending Los Angeles Center
06:48PM 36.0744 -115.0917 270° West 173 199 2,600 -1,140 Descending Los Angeles Center
06:50PM 36.0667 -115.1500 270° West  Level FlightAware Approximate